Time;durP1;ratioP1;P1;durP2;ratioP2;P2;SDS_P1;SDS_P2;PMS_P1;PMS_P2;Temp;Humidity;BMP_temperature;BMP_pressure;BME280_temperature;BME280_humidity;BME280_pressure;Samples;Min_cycle;Max_cycle;Signal;HPM_P1;HPM_P2
2023/03/12 00:02:23;;;;;;;;;;;;;;;21.98;35.28;100361.16;7258202;19;152712;-56
2023/03/12 00:04:50;;;;;;;;;;;;;;;21.97;35.31;100368.78;7259295;19;154412;-55
2023/03/12 00:07:17;;;;;;;;;;;;;;;21.97;35.46;100360.34;7262080;19;153073;-55
2023/03/12 00:09:44;;;;;;;;;;;;;;;21.99;35.37;100357.16;7247830;19;153672;-55
2023/03/12 00:12:11;;;;;;;;;;;;;;;21.98;35.52;100358.34;7256686;19;152905;-55
2023/03/12 00:14:39;;;;;;;;;;;;;;;21.96;35.70;100349.41;7263588;19;154199;-56
2023/03/12 00:17:06;;;;;;;;;;;;;;;21.99;35.21;100351.53;7258762;19;155158;-56
2023/03/12 00:19:33;;;;;;;;;;;;;;;21.99;35.50;100354.34;7261247;19;154063;-56
2023/03/12 00:22:00;;;;;;;;;;;;;;;21.98;35.64;100347.09;7257212;19;153400;-56
2023/03/12 00:24:27;;;;;;;;;;;;;;;22.00;35.75;100341.94;7257047;19;153775;-55
2023/03/12 00:26:55;;;;;;;;;;;;;;;21.98;35.63;100345.13;7260284;19;153458;-56
2023/03/12 00:29:22;;;;;;;;;;;;;;;21.97;35.90;100339.81;7261489;19;154288;-57
2023/03/12 00:31:50;;;;;;;;;;;;;;;21.99;35.89;100337.47;7258110;19;154239;-56
2023/03/12 00:34:18;;;;;;;;;;;;;;;21.96;35.55;100347.41;7259884;19;154050;-55
2023/03/12 00:36:45;;;;;;;;;;;;;;;21.96;35.56;100332.53;7253617;19;153784;-56
2023/03/12 00:39:12;;;;;;;;;;;;;;;21.96;35.92;100343.78;7255375;19;153129;-56
2023/03/12 00:41:39;;;;;;;;;;;;;;;21.96;35.54;100340.97;7255851;19;154017;-55
2023/03/12 00:44:07;;;;;;;;;;;;;;;21.95;35.55;100339.31;7258947;19;153916;-56
2023/03/12 00:46:34;;;;;;;;;;;;;;;21.92;36.02;100349.22;7258810;19;152460;-56
2023/03/12 00:49:01;;;;;;;;;;;;;;;21.91;35.82;100343.91;7256433;19;154448;-55
2023/03/12 00:51:28;;;;;;;;;;;;;;;21.92;36.03;100345.56;7261246;19;156289;-55
2023/03/12 00:53:57;;;;;;;;;;;;;;;21.89;35.81;100346.25;7255780;19;154211;-56
2023/03/12 00:56:24;;;;;;;;;;;;;;;21.86;36.10;100352.53;7262818;19;153616;-56
2023/03/12 00:58:51;;;;;;;;;;;;;;;21.84;36.22;100343.59;7264801;19;153436;-56
2023/03/12 01:01:18;;;;;;;;;;;;;;;21.78;35.96;100353.34;7244770;19;153522;-55
2023/03/12 01:03:46;;;;;;;;;;;;;;;21.72;36.36;100350.72;7256181;19;153412;-56
2023/03/12 01:06:13;;;;;;;;;;;;;;;21.72;36.25;100347.06;7258142;19;153288;-56
2023/03/12 01:08:40;;;;;;;;;;;;;;;21.68;36.89;100348.88;7251911;19;152762;-57
2023/03/12 01:11:11;;;;;;;;;;;;;;;21.62;36.90;100353.84;7259071;19;154458;-56
2023/03/12 01:13:38;;;;;;;;;;;;;;;21.59;36.94;100350.88;7255262;19;153252;-56
2023/03/12 01:16:06;;;;;;;;;;;;;;;21.55;37.03;100347.06;7254298;19;154191;-56
2023/03/12 01:18:33;;;;;;;;;;;;;;;21.52;37.06;100351.38;7261742;19;153343;-56
2023/03/12 01:21:00;;;;;;;;;;;;;;;21.48;37.45;100344.75;7256877;19;154078;-56
2023/03/12 01:23:27;;;;;;;;;;;;;;;21.44;37.38;100345.75;7255840;19;154888;-56
2023/03/12 01:25:55;;;;;;;;;;;;;;;21.42;37.21;100340.44;7257082;19;154002;-55
2023/03/12 01:28:22;;;;;;;;;;;;;;;21.40;37.52;100339.09;7247949;19;153327;-56
2023/03/12 01:30:50;;;;;;;;;;;;;;;21.33;37.44;100342.44;7255812;19;152821;-56
2023/03/12 01:33:17;;;;;;;;;;;;;;;21.33;37.44;100334.00;7256785;19;152991;-56
2023/03/12 01:35:44;;;;;;;;;;;;;;;21.30;37.96;100340.28;7257706;19;153931;-56
2023/03/12 01:38:13;;;;;;;;;;;;;;;21.26;38.12;100333.63;7253801;19;154046;-56
2023/03/12 01:40:41;;;;;;;;;;;;;;;21.24;37.74;100334.00;7262765;19;152627;-56
2023/03/12 01:43:17;;;;;;;;;;;;;;;21.19;38.00;100345.38;7256436;19;154579;-56
2023/03/12 01:45:47;;;;;;;;;;;;;;;21.17;37.95;100335.59;7257873;19;153997;-55
2023/03/12 01:48:16;;;;;;;;;;;;;;;21.13;38.32;100326.19;7256423;19;154144;-55
2023/03/12 01:50:44;;;;;;;;;;;;;;;21.10;38.20;100326.81;7255131;19;154441;-55
2023/03/12 01:53:11;;;;;;;;;;;;;;;21.08;38.37;100324.31;7243868;19;153396;-55
2023/03/12 01:55:39;;;;;;;;;;;;;;;21.06;38.46;100328.63;7251834;19;153412;-55
2023/03/12 01:58:06;;;;;;;;;;;;;;;21.04;38.71;100325.31;7255186;19;154134;-55
2023/03/12 02:00:33;;;;;;;;;;;;;;;21.00;38.74;100338.34;7255720;19;153256;-56
2023/03/12 02:03:04;;;;;;;;;;;;;;;20.98;38.66;100335.88;7260466;19;154424;-55
2023/03/12 02:05:36;;;;;;;;;;;;;;;20.94;38.75;100345.28;7256265;19;152356;-55
2023/03/12 02:08:04;;;;;;;;;;;;;;;20.91;38.84;100337.50;7255371;19;153402;-55
2023/03/12 02:10:31;;;;;;;;;;;;;;;20.88;38.84;100343.78;7251860;19;152659;-55
2023/03/12 02:12:59;;;;;;;;;;;;;;;20.84;38.79;100341.63;7252751;19;154244;-54
2023/03/12 02:15:26;;;;;;;;;;;;;;;20.83;39.11;100358.78;7249852;19;154559;-56
2023/03/12 02:17:54;;;;;;;;;;;;;;;20.79;39.33;100361.44;7248968;19;156303;-55
2023/03/12 02:20:22;;;;;;;;;;;;;;;20.78;39.19;100354.16;7254419;19;153905;-55
2023/03/12 02:22:58;;;;;;;;;;;;;;;20.73;39.01;100357.09;7254341;19;153918;-56
2023/03/12 02:25:29;;;;;;;;;;;;;;;20.73;39.39;100354.28;7261806;19;156033;-56
2023/03/12 02:27:59;;;;;;;;;;;;;;;20.69;39.15;100353.28;7256862;19;153032;-55
2023/03/12 02:30:29;;;;;;;;;;;;;;;20.67;39.37;100349.16;7251287;19;154398;-56
2023/03/12 02:32:59;;;;;;;;;;;;;;;20.64;39.36;100359.03;7257537;19;153452;-55
2023/03/12 02:35:26;;;;;;;;;;;;;;;20.62;39.66;100349.31;7254750;19;154477;-55
2023/03/12 02:37:54;;;;;;;;;;;;;;;20.59;39.39;100350.75;7252992;19;153541;-55
2023/03/12 02:40:22;;;;;;;;;;;;;;;20.56;39.72;100342.16;7251419;19;152364;-56
2023/03/12 02:42:49;;;;;;;;;;;;;;;20.56;39.66;100344.97;7251468;19;154185;-56
2023/03/12 02:45:17;;;;;;;;;;;;;;;20.50;39.69;100335.84;7252448;19;153768;-57
2023/03/12 02:47:44;;;;;;;;;;;;;;;20.51;39.74;100345.13;7261582;19;153706;-56
2023/03/12 02:50:11;;;;;;;;;;;;;;;20.46;39.73;100340.47;7251363;19;154305;-56
2023/03/12 02:52:40;;;;;;;;;;;;;;;20.44;39.68;100339.97;7253166;19;154020;-56
2023/03/12 02:55:08;;;;;;;;;;;;;;;20.39;40.17;100343.75;7250432;19;153535;-56
2023/03/12 02:57:36;;;;;;;;;;;;;;;20.38;39.96;100338.44;7254728;19;154086;-56
2023/03/12 03:00:05;;;;;;;;;;;;;;;20.36;40.32;100344.38;7254279;19;154643;-56
2023/03/12 03:02:32;;;;;;;;;;;;;;;20.34;40.13;100346.69;7253831;19;154006;-56
2023/03/12 03:05:00;;;;;;;;;;;;;;;20.32;40.10;100351.78;7251077;19;156542;-57
2023/03/12 03:07:27;;;;;;;;;;;;;;;20.31;40.43;100355.72;7262813;19;153272;-56
2023/03/12 03:09:54;;;;;;;;;;;;;;;20.27;40.33;100356.66;7252370;19;154948;-56
2023/03/12 03:12:21;;;;;;;;;;;;;;;20.25;40.55;100350.56;7251881;19;153609;-56
2023/03/12 03:14:49;;;;;;;;;;;;;;;20.22;40.48;100360.44;7255431;19;153469;-56
2023/03/12 03:17:16;;;;;;;;;;;;;;;20.20;40.93;100359.09;7246817;19;153277;-56
2023/03/12 03:19:43;;;;;;;;;;;;;;;20.20;40.67;100361.91;7249493;19;154453;-56
2023/03/12 03:22:11;;;;;;;;;;;;;;;20.17;40.72;100354.94;7253311;19;154081;-55
2023/03/12 03:24:38;;;;;;;;;;;;;;;20.17;40.74;100348.53;7251441;19;154053;-56
2023/03/12 03:27:05;;;;;;;;;;;;;;;20.14;40.93;100350.00;7254310;19;153197;-56
2023/03/12 03:29:32;;;;;;;;;;;;;;;20.13;41.14;100348.31;7259208;19;154447;-56
2023/03/12 03:31:59;;;;;;;;;;;;;;;20.10;41.23;100354.59;7253416;19;153347;-56
2023/03/12 03:34:27;;;;;;;;;;;;;;;20.09;40.94;100357.69;7253059;19;154397;-56
2023/03/12 03:36:54;;;;;;;;;;;;;;;20.07;41.42;100360.00;7249951;19;155494;-56
2023/03/12 03:39:23;;;;;;;;;;;;;;;20.06;41.34;100376.00;7253421;19;152963;-56
2023/03/12 03:41:51;;;;;;;;;;;;;;;20.04;41.07;100372.69;7252636;19;153249;-56
2023/03/12 03:44:18;;;;;;;;;;;;;;;20.02;41.51;100363.78;7252250;19;156513;-56
2023/03/12 03:46:46;;;;;;;;;;;;;;;19.99;41.25;100373.63;7254062;19;153192;-56
2023/03/12 03:49:14;;;;;;;;;;;;;;;19.98;41.48;100390.81;7254918;19;154266;-57
2023/03/12 03:51:41;;;;;;;;;;;;;;;19.97;41.36;100384.38;7261022;19;153273;-56
2023/03/12 03:54:09;;;;;;;;;;;;;;;19.95;41.64;100389.44;7253883;19;156934;-56
2023/03/12 03:56:36;;;;;;;;;;;;;;;19.94;41.58;100396.19;7253320;19;153972;-57
2023/03/12 03:59:04;;;;;;;;;;;;;;;19.90;41.70;100400.78;7263871;19;154385;-55
2023/03/12 04:01:31;;;;;;;;;;;;;;;19.91;41.65;100413.66;7261516;19;154196;-55
2023/03/12 04:03:58;;;;;;;;;;;;;;;19.87;41.80;100414.63;7258602;19;154861;-55
2023/03/12 04:06:26;;;;;;;;;;;;;;;19.83;41.65;100411.63;7259629;19;153267;-55
2023/03/12 04:08:53;;;;;;;;;;;;;;;19.83;41.83;100420.03;7261755;19;153481;-55
2023/03/12 04:11:20;;;;;;;;;;;;;;;19.80;41.69;100417.88;7259501;19;155396;-55
2023/03/12 04:13:48;;;;;;;;;;;;;;;19.79;41.64;100419.00;7268772;19;153890;-55
2023/03/12 04:16:16;;;;;;;;;;;;;;;19.78;41.82;100425.75;7259702;19;154202;-55
2023/03/12 04:18:44;;;;;;;;;;;;;;;19.75;41.82;100425.56;7259555;19;152107;-55
2023/03/12 04:21:12;;;;;;;;;;;;;;;19.74;41.63;100427.53;7263770;19;154375;-55
2023/03/12 04:23:39;;;;;;;;;;;;;;;19.72;41.83;100431.78;7253925;19;154042;-55
2023/03/12 04:26:07;;;;;;;;;;;;;;;19.69;41.70;100424.00;7259047;19;153860;-55
2023/03/12 04:28:34;;;;;;;;;;;;;;;19.68;41.77;100428.78;7260134;19;154505;-55
2023/03/12 04:31:02;;;;;;;;;;;;;;;19.66;41.91;100424.66;7260175;19;154583;-57
2023/03/12 04:33:33;;;;;;;;;;;;;;;19.65;42.20;100426.63;7260907;19;153844;-55
2023/03/12 04:36:00;;;;;;;;;;;;;;;19.62;42.16;100420.84;7261662;19;153452;-55
2023/03/12 04:38:29;;;;;;;;;;;;;;;19.60;42.15;100423.09;7255900;19;153819;-55
2023/03/12 04:40:57;;;;;;;;;;;;;;;19.60;42.13;100423.94;7259946;19;154141;-55
2023/03/12 04:43:25;;;;;;;;;;;;;;;19.57;42.17;100432.97;7258976;19;153847;-54
2023/03/12 04:45:52;;;;;;;;;;;;;;;19.57;42.54;100438.59;7261610;19;153222;-55
2023/03/12 04:48:19;;;;;;;;;;;;;;;19.54;42.32;100442.00;7261093;19;154267;-56
2023/03/12 04:50:47;;;;;;;;;;;;;;;19.52;42.38;100438.69;7262891;19;153357;-55
2023/03/12 04:53:14;;;;;;;;;;;;;;;19.49;42.58;100456.13;7258962;19;152666;-54
2023/03/12 04:55:41;;;;;;;;;;;;;;;19.49;42.58;100450.50;7257844;19;153763;-55
2023/03/12 04:58:08;;;;;;;;;;;;;;;19.48;42.39;100462.88;7265296;19;154236;-54
2023/03/12 05:00:37;;;;;;;;;;;;;;;19.45;42.65;100471.91;7263176;19;153933;-55
2023/03/12 05:03:05;;;;;;;;;;;;;;;19.44;42.67;100471.06;7256619;19;153978;-55
2023/03/12 05:05:34;;;;;;;;;;;;;;;19.44;42.48;100481.47;7259828;19;154178;-55
2023/03/12 05:08:02;;;;;;;;;;;;;;;19.40;42.49;100477.56;7259172;19;152740;-55
2023/03/12 05:10:29;;;;;;;;;;;;;;;19.40;42.45;100474.78;7254689;19;152534;-55
2023/03/12 05:12:56;;;;;;;;;;;;;;;19.38;42.62;100477.06;7259862;19;153299;-55
2023/03/12 05:15:24;;;;;;;;;;;;;;;19.36;42.69;100473.75;7258908;19;154109;-55
2023/03/12 05:17:51;;;;;;;;;;;;;;;19.34;42.41;100474.06;7265994;19;153472;-55
2023/03/12 05:20:20;;;;;;;;;;;;;;;19.31;42.77;100479.44;7259280;19;154273;-54
2023/03/12 05:22:47;;;;;;;;;;;;;;;19.29;42.83;100487.34;7255374;19;154209;-55
2023/03/12 05:25:15;;;;;;;;;;;;;;;19.30;42.51;100492.66;7257444;19;153297;-55
2023/03/12 05:27:42;;;;;;;;;;;;;;;19.27;42.65;100498.84;7259646;19;154195;-55
2023/03/12 05:30:10;;;;;;;;;;;;;;;19.25;42.91;100498.34;7257855;19;152920;-55
2023/03/12 05:32:37;;;;;;;;;;;;;;;19.23;42.52;100496.97;7260262;19;153438;-55
2023/03/12 05:35:04;;;;;;;;;;;;;;;19.23;42.94;100485.78;7259734;19;154228;-55
2023/03/12 05:37:32;;;;;;;;;;;;;;;19.21;42.72;100511.31;7258328;19;154039;-55
2023/03/12 05:39:59;;;;;;;;;;;;;;;19.19;42.79;100519.19;7264091;19;152759;-55
2023/03/12 05:42:26;;;;;;;;;;;;;;;19.17;42.63;100518.66;7257834;19;153438;-55
2023/03/12 05:44:54;;;;;;;;;;;;;;;19.16;42.76;100524.59;7259044;19;152148;-55
2023/03/12 05:47:21;;;;;;;;;;;;;;;19.14;42.81;100513.69;7258528;19;155247;-55
2023/03/12 05:49:49;;;;;;;;;;;;;;;19.15;43.02;100511.72;7255351;19;155209;-55
2023/03/12 05:52:16;;;;;;;;;;;;;;;19.13;43.13;100512.00;7258432;19;153139;-55
2023/03/12 05:54:43;;;;;;;;;;;;;;;19.12;42.78;100503.94;7256855;19;153605;-55
2023/03/12 05:57:10;;;;;;;;;;;;;;;19.11;43.00;100494.72;7255144;19;152837;-56
2023/03/12 05:59:38;;;;;;;;;;;;;;;19.12;42.84;100498.34;7257967;19;153416;-56
2023/03/12 06:02:05;;;;;;;;;;;;;;;19.08;43.17;100506.50;7264621;19;153270;-56
2023/03/12 06:04:32;;;;;;;;;;;;;;;19.05;43.36;100495.94;7253007;19;154156;-56
2023/03/12 06:07:00;;;;;;;;;;;;;;;19.03;43.12;100496.22;7258459;19;153571;-56
2023/03/12 06:09:27;;;;;;;;;;;;;;;19.03;43.02;100501.03;7255603;19;153899;-56
2023/03/12 06:11:54;;;;;;;;;;;;;;;19.01;43.16;100501.34;7257880;19;154355;-55
2023/03/12 06:14:21;;;;;;;;;;;;;;;19.02;43.49;100489.00;7258330;19;154400;-56
2023/03/12 06:16:49;;;;;;;;;;;;;;;19.01;43.31;100486.50;7255747;19;154442;-55
2023/03/12 06:19:17;;;;;;;;;;;;;;;18.97;43.47;100483.50;7256631;19;152920;-55
2023/03/12 06:21:44;;;;;;;;;;;;;;;18.96;43.17;100481.00;7260125;19;154660;-56
2023/03/12 06:24:11;;;;;;;;;;;;;;;18.96;43.19;100483.78;7261498;19;152959;-55
2023/03/12 06:26:39;;;;;;;;;;;;;;;18.95;43.22;100496.13;7258419;19;154090;-55
2023/03/12 06:29:06;;;;;;;;;;;;;;;18.93;43.39;100488.06;7255842;19;155258;-55
2023/03/12 06:31:33;;;;;;;;;;;;;;;18.90;43.34;100499.84;7256587;19;152562;-55
2023/03/12 06:34:05;;;;;;;;;;;;;;;18.90;43.67;100499.84;7254775;19;154528;-56
2023/03/12 06:36:32;;;;;;;;;;;;;;;18.88;43.57;100496.53;7254601;19;155779;-55
2023/03/12 06:38:59;;;;;;;;;;;;;;;18.88;43.82;100504.09;7254417;19;153220;-55
2023/03/12 06:41:26;;;;;;;;;;;;;;;18.86;43.76;100503.56;7258339;19;153565;-55
2023/03/12 06:43:54;;;;;;;;;;;;;;;18.84;43.47;100509.50;7253949;19;154456;-56
2023/03/12 06:46:23;;;;;;;;;;;;;;;18.83;43.55;100521.81;7265021;19;152512;-55
2023/03/12 06:48:51;;;;;;;;;;;;;;;18.85;43.58;100527.94;7253890;19;153682;-55
2023/03/12 06:51:18;;;;;;;;;;;;;;;18.88;43.66;100538.53;7257972;19;153810;-56
2023/03/12 06:53:45;;;;;;;;;;;;;;;18.94;43.42;100548.47;7254555;19;154147;-56
2023/03/12 06:56:13;;;;;;;;;;;;;;;19.03;43.59;100549.44;7252022;19;153963;-57
2023/03/12 06:58:40;;;;;;;;;;;;;;;19.10;43.78;100552.69;7254909;19;154312;-56
2023/03/12 07:01:08;;;;;;;;;;;;;;;19.15;43.72;100548.13;7257133;19;153884;-56
2023/03/12 07:03:36;;;;;;;;;;;;;;;19.23;43.35;100553.00;7250701;19;152672;-56
2023/03/12 07:06:04;;;;;;;;;;;;;;;19.27;43.66;100551.22;7254733;19;152771;-55
2023/03/12 07:08:31;;;;;;;;;;;;;;;19.31;43.69;100546.66;7256623;19;153852;-55
2023/03/12 07:10:59;;;;;;;;;;;;;;;19.34;43.85;100544.09;7255893;19;153136;-55
2023/03/12 07:13:28;;;;;;;;;;;;;;;19.39;44.16;100546.81;7255633;19;153628;-55
2023/03/12 07:15:55;;;;;;;;;;;;;;;19.43;44.10;100542.28;7254245;19;153464;-55
2023/03/12 07:18:23;;;;;;;;;;;;;;;19.47;43.93;100536.88;7255309;19;153464;-56
2023/03/12 07:20:50;;;;;;;;;;;;;;;19.51;43.83;100541.53;7256620;19;153942;-56
2023/03/12 07:23:18;;;;;;;;;;;;;;;19.57;44.09;100555.44;7253332;19;154358;-55
2023/03/12 07:25:46;;;;;;;;;;;;;;;19.61;44.19;100553.69;7254552;19;154672;-55
2023/03/12 07:28:14;;;;;;;;;;;;;;;19.67;44.16;100555.25;7262509;19;154059;-55
2023/03/12 07:30:41;;;;;;;;;;;;;;;19.72;43.87;100555.09;7254776;19;153816;-55
2023/03/12 07:33:10;;;;;;;;;;;;;;;19.77;44.14;100564.25;7263491;19;152360;-55
2023/03/12 07:35:38;;;;;;;;;;;;;;;19.83;43.68;100554.59;7260489;19;155583;-56
2023/03/12 07:38:06;;;;;;;;;;;;;;;19.88;43.51;100543.28;7264026;19;153317;-55
2023/03/12 07:40:34;;;;;;;;;;;;;;;19.91;43.56;100550.22;7263670;19;154669;-55
2023/03/12 07:43:01;;;;;;;;;;;;;;;19.98;43.33;100559.06;7259333;19;154150;-55
2023/03/12 07:45:29;;;;;;;;;;;;;;;20.02;43.32;100562.88;7262761;19;153204;-55
2023/03/12 07:47:57;;;;;;;;;;;;;;;20.08;43.09;100574.81;7262599;19;153627;-55
2023/03/12 07:50:24;;;;;;;;;;;;;;;20.13;43.04;100581.13;7266722;19;153413;-55
2023/03/12 07:52:52;;;;;;;;;;;;;;;20.17;43.13;100570.13;7261241;19;154041;-55
2023/03/12 07:55:19;;;;;;;;;;;;;;;20.21;43.13;100577.59;7256136;19;153799;-55
2023/03/12 07:57:46;;;;;;;;;;;;;;;20.27;42.94;100564.25;7262545;19;154516;-55
2023/03/12 08:00:15;;;;;;;;;;;;;;;20.32;42.73;100569.78;7259235;19;153978;-55
2023/03/12 08:02:43;;;;;;;;;;;;;;;20.38;42.77;100568.53;7261350;19;153514;-56
2023/03/12 08:05:11;;;;;;;;;;;;;;;20.42;42.56;100572.38;7259908;19;153319;-55
2023/03/12 08:07:38;;;;;;;;;;;;;;;20.47;42.86;100577.03;7260235;19;153236;-55
2023/03/12 08:10:07;;;;;;;;;;;;;;;20.52;42.45;100588.97;7258764;19;153545;-54
2023/03/12 08:12:36;;;;;;;;;;;;;;;20.56;42.47;100589.16;7268356;19;152441;-55
2023/03/12 08:15:05;;;;;;;;;;;;;;;20.62;42.65;100601.94;7259004;19;152310;-55
2023/03/12 08:17:32;;;;;;;;;;;;;;;20.65;42.58;100593.69;7259998;19;154074;-55
2023/03/12 08:19:59;;;;;;;;;;;;;;;20.69;42.28;100596.69;7261284;19;152708;-54
2023/03/12 08:22:26;;;;;;;;;;;;;;;20.73;41.99;100600.53;7257848;19;154022;-55
2023/03/12 08:24:53;;;;;;;;;;;;;;;20.78;42.18;100591.97;7257481;19;153479;-55
2023/03/12 08:27:20;;;;;;;;;;;;;;;20.79;41.81;100586.06;7261956;19;153905;-55
2023/03/12 08:29:48;;;;;;;;;;;;;;;20.83;41.80;100591.84;7260002;19;153590;-56
2023/03/12 08:32:15;;;;;;;;;;;;;;;20.85;42.06;100584.75;7259666;19;153837;-55
2023/03/12 08:34:42;;;;;;;;;;;;;;;20.89;41.67;100586.94;7266744;19;153457;-55
2023/03/12 08:37:09;;;;;;;;;;;;;;;20.91;41.49;100602.31;7260563;19;153436;-55
2023/03/12 08:39:37;;;;;;;;;;;;;;;20.95;41.84;100588.44;7260564;19;153157;-56
2023/03/12 08:42:04;;;;;;;;;;;;;;;20.96;41.53;100592.91;7258641;19;155209;-55
2023/03/12 08:44:31;;;;;;;;;;;;;;;20.99;41.44;100595.09;7258703;19;153190;-55
2023/03/12 08:46:58;;;;;;;;;;;;;;;21.00;41.19;100603.19;7261613;19;153579;-54
2023/03/12 08:49:25;;;;;;;;;;;;;;;21.01;41.45;100595.59;7261316;19;154139;-55
2023/03/12 08:51:52;;;;;;;;;;;;;;;21.03;41.30;100596.13;7260285;19;153402;-55
2023/03/12 08:54:20;;;;;;;;;;;;;;;21.05;41.21;100610.66;7257159;19;153980;-55
2023/03/12 08:56:50;;;;;;;;;;;;;;;21.06;41.33;100607.53;7267783;19;153781;-56
2023/03/12 08:59:19;;;;;;;;;;;;;;;21.07;41.03;100611.19;7259081;19;153384;-56
2023/03/12 09:01:46;;;;;;;;;;;;;;;21.08;41.49;100607.22;7259649;19;154195;-55
2023/03/12 09:04:14;;;;;;;;;;;;;;;21.08;41.16;100604.41;7258330;19;154002;-56
2023/03/12 09:06:41;;;;;;;;;;;;;;;21.10;41.29;100617.00;7259342;19;153570;-55
2023/03/12 09:09:08;;;;;;;;;;;;;;;21.09;41.18;100615.31;7253895;19;153670;-55
2023/03/12 09:11:38;;;;;;;;;;;;;;;21.09;41.16;100608.88;7263952;19;153782;-56
2023/03/12 09:14:05;;;;;;;;;;;;;;;21.08;41.03;100605.22;7260601;19;153388;-55
2023/03/12 09:16:52;;;;;;;;;;;;;;;21.09;40.85;100614.50;7254221;19;154488;-55
2023/03/12 09:19:20;;;;;;;;;;;;;;;21.09;41.08;100611.69;7265768;19;153224;-55
2023/03/12 09:21:47;;;;;;;;;;;;;;;21.09;40.87;100611.69;7257103;19;153429;-56
2023/03/12 09:24:14;;;;;;;;;;;;;;;21.08;40.58;100622.09;7257029;19;152662;-57
2023/03/12 09:26:41;;;;;;;;;;;;;;;21.07;40.93;100617.63;7259665;19;153062;-57
2023/03/12 09:29:08;;;;;;;;;;;;;;;21.07;40.53;100617.63;7257840;19;154979;-55
2023/03/12 09:31:35;;;;;;;;;;;;;;;21.08;40.94;100618.44;7257826;19;153268;-55
2023/03/12 09:34:03;;;;;;;;;;;;;;;21.07;40.81;100623.25;7259020;19;154907;-55
2023/03/12 09:36:30;;;;;;;;;;;;;;;21.06;40.72;100624.41;7259050;19;153843;-55
2023/03/12 09:38:58;;;;;;;;;;;;;;;21.06;40.78;100618.78;7263338;19;153939;-55
2023/03/12 09:41:27;;;;;;;;;;;;;;;21.04;40.88;100626.69;7256754;19;153027;-55
2023/03/12 09:43:55;;;;;;;;;;;;;;;21.04;40.42;100629.50;7256039;19;152604;-55
2023/03/12 09:46:25;;;;;;;;;;;;;;;21.03;40.55;100621.41;7256975;19;153350;-54
2023/03/12 09:48:53;;;;;;;;;;;;;;;20.99;41.11;100620.34;7254073;19;153479;-55
2023/03/12 09:51:23;;;;;;;;;;;;;;;20.97;40.64;100614.25;7259879;19;152995;-55
2023/03/12 09:53:52;;;;;;;;;;;;;;;20.95;41.07;100628.59;7254590;19;154047;-55
2023/03/12 09:56:20;;;;;;;;;;;;;;;20.92;41.14;100625.59;7252820;19;153486;-55
2023/03/12 09:58:48;;;;;;;;;;;;;;;20.89;40.78;100613.03;7256925;19;154022;-55
2023/03/12 10:01:18;;;;;;;;;;;;;;;20.86;41.20;100614.50;7264265;19;153356;-55
2023/03/12 10:03:48;;;;;;;;;;;;;;;20.83;41.18;100611.50;7255435;19;154185;-55
2023/03/12 10:06:19;;;;;;;;;;;;;;;20.84;41.09;100607.56;7255695;19;153350;-55
2023/03/12 10:08:49;;;;;;;;;;;;;;;20.79;41.35;100602.91;7252576;19;153479;-55
2023/03/12 10:11:18;;;;;;;;;;;;;;;20.81;41.35;100603.38;7259252;19;154203;-54
2023/03/12 10:13:48;;;;;;;;;;;;;;;20.76;41.37;100600.69;7255596;19;153858;-55
2023/03/12 10:16:18;;;;;;;;;;;;;;;20.72;41.36;100608.09;7258527;19;153950;-55
2023/03/12 10:18:48;;;;;;;;;;;;;;;20.70;41.67;100601.16;7256894;19;153194;-55
2023/03/12 10:21:24;;;;;;;;;;;;;;;20.64;41.53;100602.44;7257873;19;154007;-55
2023/03/12 10:23:54;;;;;;;;;;;;;;;20.60;41.47;100593.81;7259428;19;153124;-55
2023/03/12 10:26:24;;;;;;;;;;;;;;;20.58;41.85;100586.88;7255072;19;152766;-55
2023/03/12 10:28:56;;;;;;;;;;;;;;;20.55;42.24;100587.50;7255585;19;153166;-55
2023/03/12 10:31:28;;;;;;;;;;;;;;;20.54;41.86;100591.44;7257999;19;153717;-55
2023/03/12 10:33:57;;;;;;;;;;;;;;;20.57;42.17;100576.78;7255701;19;154266;-55
2023/03/12 10:36:28;;;;;;;;;;;;;;;20.55;42.04;100582.72;7258673;19;154237;-55
2023/03/12 10:38:55;;;;;;;;;;;;;;;20.54;41.74;100577.41;7252863;19;152489;-55
2023/03/12 10:41:25;;;;;;;;;;;;;;;20.51;41.87;100583.66;7259709;19;154098;-54
2023/03/12 10:43:53;;;;;;;;;;;;;;;20.50;42.02;100577.22;7250523;19;154507;-55
2023/03/12 10:46:21;;;;;;;;;;;;;;;20.42;41.52;100586.41;7263131;19;154175;-54
2023/03/12 10:48:48;;;;;;;;;;;;;;;20.36;41.68;100585.69;7254465;19;154821;-55
2023/03/12 10:51:15;;;;;;;;;;;;;;;20.29;41.78;100588.06;7257203;19;154062;-54
2023/03/12 10:53:43;;;;;;;;;;;;;;;20.25;41.51;100589.84;7252324;19;154616;-55
2023/03/12 10:56:12;;;;;;;;;;;;;;;20.20;41.49;100584.34;7254055;19;157026;-54
2023/03/12 10:58:40;;;;;;;;;;;;;;;20.27;41.44;100579.13;7258889;19;153169;-54
2023/03/12 11:01:10;;;;;;;;;;;;;;;20.17;41.30;100584.97;7259602;19;153040;-55
2023/03/12 11:03:37;;;;;;;;;;;;;;;19.85;41.34;100574.72;7255526;19;153812;-59
2023/03/12 11:06:06;;;;;;;;;;;;;;;19.84;41.63;100575.88;7263484;19;153990;-54
2023/03/12 11:08:35;;;;;;;;;;;;;;;20.01;41.52;100572.44;7270240;19;154751;-54
2023/03/12 11:11:03;;;;;;;;;;;;;;;20.09;41.83;100566.06;7261358;19;153765;-54
2023/03/12 11:13:32;;;;;;;;;;;;;;;20.13;41.46;100571.88;7258133;19;153252;-54
2023/03/12 11:16:01;;;;;;;;;;;;;;;20.20;41.23;100556.28;7269268;19;153935;-55
2023/03/12 11:18:31;;;;;;;;;;;;;;;20.24;41.24;100551.72;7269767;19;154296;-54
2023/03/12 11:21:02;;;;;;;;;;;;;;;20.33;41.33;100560.22;7273285;19;152909;-54
2023/03/12 11:23:30;;;;;;;;;;;;;;;20.38;40.94;100546.91;7272024;19;153650;-54
2023/03/12 11:25:59;;;;;;;;;;;;;;;20.43;40.98;100554.38;7269069;19;152900;-54
2023/03/12 11:28:31;;;;;;;;;;;;;;;20.49;40.83;100563.53;7269245;19;153404;-54
2023/03/12 11:30:59;;;;;;;;;;;;;;;20.55;40.61;100565.03;7272807;19;153422;-54
2023/03/12 11:33:26;;;;;;;;;;;;;;;20.55;40.76;100565.88;7268565;19;153628;-54
2023/03/12 11:35:56;;;;;;;;;;;;;;;20.58;40.87;100561.63;7265938;19;154103;-54
2023/03/12 11:38:27;;;;;;;;;;;;;;;20.61;40.61;100573.03;7266049;19;153691;-54
2023/03/12 11:40:57;;;;;;;;;;;;;;;20.63;40.54;100570.72;7267072;19;153862;-54
2023/03/12 11:43:27;;;;;;;;;;;;;;;20.67;40.71;100571.72;7268911;19;154239;-54
2023/03/12 11:46:09;;;;;;;;;;;;;;;20.71;40.79;100578.41;7269588;19;154318;-54
2023/03/12 11:48:40;;;;;;;;;;;;;;;20.74;40.31;100568.50;7267394;19;154038;-55
2023/03/12 11:51:07;;;;;;;;;;;;;;;20.76;40.40;100575.44;7276998;19;153579;-54
2023/03/12 11:53:38;;;;;;;;;;;;;;;20.78;40.11;100569.50;7265586;19;153416;-54
2023/03/12 11:56:06;;;;;;;;;;;;;;;20.76;40.52;100566.19;7266408;19;153456;-54
2023/03/12 11:58:33;;;;;;;;;;;;;;;20.79;40.06;100563.59;7271763;19;153060;-54
2023/03/12 12:01:03;;;;;;;;;;;;;;;20.81;40.40;100555.66;7270887;19;153465;-54
2023/03/12 12:03:33;;;;;;;;;;;;;;;20.78;40.04;100547.03;7264154;19;154422;-54
2023/03/12 12:06:04;;;;;;;;;;;;;;;20.82;40.45;100534.84;7278383;19;152999;-54
2023/03/12 12:08:41;;;;;;;;;;;;;;;20.82;40.08;100536.84;7274994;19;152921;-54
2023/03/12 12:11:11;;;;;;;;;;;;;;;20.82;40.45;100537.66;7270768;19;153849;-54
2023/03/12 12:13:41;;;;;;;;;;;;;;;20.82;40.41;100534.84;7275961;19;153050;-54
2023/03/12 12:16:18;;;;;;;;;;;;;;;20.79;40.61;100532.69;7269429;19;153630;-54
2023/03/12 12:18:46;;;;;;;;;;;;;;;20.81;40.61;100529.56;7256424;19;153625;-54
2023/03/12 12:21:16;;;;;;;;;;;;;;;20.80;40.45;100536.34;7264015;19;153331;-55
2023/03/12 12:23:47;;;;;;;;;;;;;;;20.77;40.69;100526.56;7254619;19;153734;-54
2023/03/12 12:26:22;;;;;;;;;;;;;;;20.78;40.59;100527.41;7260311;19;153420;-54
2023/03/12 12:28:52;;;;;;;;;;;;;;;20.77;40.63;100523.75;7261200;19;153124;-55
2023/03/12 12:31:21;;;;;;;;;;;;;;;20.78;41.06;100511.38;7261355;19;154425;-55
2023/03/12 12:33:49;;;;;;;;;;;;;;;20.78;40.71;100505.75;7260784;19;152854;-53